KGNV/GNV METAR and TAF weather

Enter ICAO airport designator
Station Type Date Time Source
KGNV METAR 2019/11/18 08:53 UTC NOAA

KGNV 180853Z AUTO 00000KT 10SM OVC028 10/09 A2990 RMK AO2 SLP124 T01000089 55006


Station Type Date Time Source
KGNV Decoded METAR 2019/11/18 08:53 UTC NOAA

GAINESVILLE REGIONAL AIRPORT , FL, United States (KGNV) 29-42N 082-17W 45M
Nov 18, 2019 - 03:53 AM EST / 2019.11.18 0853 UTC
Wind: Calm:0
Visibility: 10 mile(s):0
Sky conditions: overcast
Temperature: 50.0 F (10.0 C)
Dew Point: 48.0 F (8.9 C)
Relative Humidity: 92%
Pressure (altimeter): 29.9 in. Hg (1012 hPa)
Pressure tendency: 0.02 inches (0.6 hPa) lower than three hours ago
ob: KGNV 180853Z AUTO 00000KT 10SM OVC028 10/09 A2990 RMK AO2 SLP124 T01000089 55006
cycle: 9

Station Type Date Time Source
KGNV TAF 2019/11/18 06:24 UTC NOAA

TAF KGNV 180523Z 1806/1906 VRB02KT P6SM BKN030 BKN250
FM180900 27003KT P6SM SCT040 BKN060 BKN250
FM181500 28006KT P6SM SCT050
FM182200 26002KT P6SM FEW040 SCT250

Example: see airport list